Archbald, Pennsylvania
Current Conditions -  °F | °C
As of 5:54 PM on Friday 19 Dec 2014 (Local Time) from KAVP Reporting Station
Overcast Overcast  
Wind Chill: 22°   Ceiling: 2300
Heat Index: 30°   Visibility: 10mi
Dew Point: 20°   Wind: 8mph
Humidity: 66%   Direction: 340°NNW
Pressure: 30.14"   Gusts: NA
Location:  41.51°N, 75.56°W
Report Text: KAVP 192254Z AUTO 34007KT 10SM BKN023 OVC028 M01/M07 A3014 RMK AO2 SLP213 T10111067
Loading
Personal Weather Stations






























Interactive Weather Map New forecast layout! Learn more

10-Day Weather Forecast

Advertisements
Track Severe Weather on mobile